Rp Zug — HE7351 — position and weather

sailwx.info

Track history (hours):
 
Tides and Currents Weather Stations Pressure Air Temp Water Temp Dewpoint Dewpoint Depression Visibility Wind Speed Wind Dir Waves Ship Positions

Rp Zug

Last reported at 2016-Jul-30 01:33 UTC. Time now 2016-Jul-30 02:00 UTC.
Position N 51°38' E 006°36'.

Length 110 m; draft 2.6 m.

Type: Tanker. MMSI: 269057351.

Date/timePositionNaut miles runAvg speedWind from/ knotsBaromVisibWave heightAir tempDewpointWater temp
2016-Jul-30 01:33N 51°38' E 006°36'16 4.9
2016-Jul-29 22:15N 51°49' E 006°16'11 3.8
2016-Jul-29 19:23N 51°52' E 005°59'4 4.7
2016-Jul-29 18:28N 51°51' E 005°52'6 6.3
2016-Jul-29 17:31N 51°53' E 005°43'12 5.9
2016-Jul-29 15:31N 51°51' E 005°25'5 5.1
2016-Jul-29 14:33N 51°49' E 005°17'8 6.7
2016-Jul-29 13:25N 51°50' E 005°04'4 4.7
2016-Jul-29 12:33N 51°50' E 004°58'9 8.7
2016-Jul-29 11:33N 51°49' E 004°44'9 9.2
2016-Jul-29 10:33N 51°54' E 004°31'8 7.9
2016-Jul-29 09:33N 51°53' E 004°18'0 0.2
2016-Jul-29 08:33N 51°53' E 004°18'0 0.0
2016-Jul-29 07:34N 51°53' E 004°18'0 0.1
2016-Jul-29 06:33N 51°53' E 004°19'0 0.2
2016-Jul-29 05:32N 51°53' E 004°18'0 0.0
2016-Jul-29 04:33N 51°53' E 004°18'0 0.0
2016-Jul-29 03:33N 51°53' E 004°18'0 0.0
2016-Jul-29 02:33N 51°53' E 004°18'0 0.0
2016-Jul-29 01:33N 51°53' E 004°18'0 0.0
2016-Jul-29 00:33N 51°53' E 004°18'0 0.0
2016-Jul-28 23:33N 51°53' E 004°18'0 0.0
2016-Jul-28 22:33N 51°53' E 004°18'0 0.0
2016-Jul-28 21:33N 51°53' E 004°18'0 0.0
2016-Jul-28 20:32N 51°53' E 004°18'0 0.0
2016-Jul-28 19:33N 51°53' E 004°18'0 0.0
2016-Jul-28 18:32N 51°53' E 004°18'0 0.0
2016-Jul-28 17:33N 51°53' E 004°18'1 0.6
2016-Jul-28 16:33N 51°53' E 004°19'0 0.0
2016-Jul-28 15:33N 51°53' E 004°19'0 0.0
2016-Jul-28 14:34N 51°53' E 004°19'0 0.0
2016-Jul-28 13:33N 51°53' E 004°19'0 0.0
2016-Jul-28 12:34N 51°53' E 004°19'0 0.0
2016-Jul-28 11:33N 51°53' E 004°19'0 0.0
2016-Jul-28 10:33N 51°53' E 004°19'0 0.0
2016-Jul-28 09:33N 51°53' E 004°19'1 0.6
2016-Jul-28 08:33N 51°53' E 004°18'0 0.0
2016-Jul-28 07:33N 51°53' E 004°18'0 0.0
2016-Jul-28 06:34N 51°53' E 004°18'0 0.1
2016-Jul-28 05:33N 51°53' E 004°18'8 8.1
2016-Jul-28 04:34N 51°54' E 004°32'1110.9
2016-Jul-28 03:33N 51°56' E 004°49'9 8.7
2016-Jul-28 02:34N 51°59' E 005°02'4 4.1
2016-Jul-28 01:33N 52°02' E 005°07'8 8.4
2016-Jul-28 00:33N 52°09' E 005°01'9 9.0
2016-Jul-27 23:34N 52°18' E 005°01'8 7.5
2016-Jul-27 22:33N 52°24' E 004°53'5 5.3
2016-Jul-27 21:34N 52°25' E 004°45'0 0.0
2016-Jul-27 20:33N 52°25' E 004°45'0 0.0
2016-Jul-27 19:33N 52°25' E 004°45'0 0.0
2016-Jul-27 18:33N 52°25' E 004°45'0 0.0
2016-Jul-27 17:33N 52°25' E 004°45'0 0.0
2016-Jul-27 16:33N 52°25' E 004°45'0 0.0
2016-Jul-27 15:33N 52°25' E 004°45'0 0.0
2016-Jul-27 14:33N 52°25' E 004°45'0 0.0
2016-Jul-27 13:29N 52°25' E 004°45'0 0.0
2016-Jul-27 12:32N 52°25' E 004°45'0 0.0
2016-Jul-27 11:29N 52°25' E 004°45'0 0.0
2016-Jul-27 10:14N 52°25' E 004°45'2 3.3
2016-Jul-27 09:34N 52°25' E 004°48'0 0.2
2016-Jul-27 08:25N 52°25' E 004°49'0 0.0
2016-Jul-27 07:32N 52°25' E 004°49'0 0.0
2016-Jul-27 06:32N 52°25' E 004°49'0 0.0
2016-Jul-27 05:31N 52°25' E 004°49'0 0.0
2016-Jul-27 04:31N 52°25' E 004°49'0 0.0
2016-Jul-27 03:32N 52°25' E 004°49'0 0.0
2016-Jul-27 02:32N 52°25' E 004°49'0 0.0
2016-Jul-27 01:31N 52°25' E 004°49'0 0.0
2016-Jul-27 00:28N 52°25' E 004°49'0 0.0
2016-Jul-26 23:28N 52°25' E 004°49'0 0.0
2016-Jul-26 22:31N 52°25' E 004°49'0 0.0
2016-Jul-26 21:31N 52°25' E 004°49'0 0.0
2016-Jul-26 20:31N 52°25' E 004°49'0 0.0
2016-Jul-26 19:32N 52°25' E 004°49'0 0.0
2016-Jul-26 18:32N 52°25' E 004°49'0 0.0
2016-Jul-26 17:31N 52°25' E 004°49'0 0.0
2016-Jul-26 16:31N 52°25' E 004°49'0 0.0
2016-Jul-26 15:26N 52°25' E 004°49'0 0.0
2016-Jul-26 14:31N 52°25' E 004°49'0 0.0
2016-Jul-26 13:28N 52°25' E 004°49'0 0.0
2016-Jul-26 12:28N 52°25' E 004°49'0 0.0
2016-Jul-26 11:31N 52°25' E 004°49'0 0.0
2016-Jul-26 10:25N 52°25' E 004°49'0 0.0
2016-Jul-26 09:31N 52°25' E 004°49'0 0.0
2016-Jul-26 08:31N 52°25' E 004°49'0 0.0
2016-Jul-26 07:28N 52°25' E 004°49'0 0.0
2016-Jul-26 06:31N 52°25' E 004°49'0 0.0
2016-Jul-26 05:32N 52°25' E 004°49'0 0.0
2016-Jul-26 04:31N 52°25' E 004°49'0 0.0
2016-Jul-26 03:32N 52°25' E 004°49'0 0.0
2016-Jul-26 02:28N 52°25' E 004°49'0 0.0
2016-Jul-26 01:31N 52°25' E 004°49'0 0.0
2016-Jul-26 00:31N 52°25' E 004°49'0 0.0
2016-Jul-25 23:31N 52°25' E 004°49'0 0.0
2016-Jul-25 22:31N 52°25' E 004°49'0 0.0
2016-Jul-25 21:31N 52°25' E 004°49'0 0.0
2016-Jul-25 20:31N 52°25' E 004°49'0 0.0
2016-Jul-25 19:32N 52°25' E 004°49'0 0.0
2016-Jul-25 18:32N 52°25' E 004°49'0 0.0
2016-Jul-25 17:31N 52°25' E 004°49'0 0.0
2016-Jul-25 16:32N 52°25' E 004°49'0 0.0
2016-Jul-25 15:31N 52°25' E 004°49'0 0.0
2016-Jul-25 14:31N 52°25' E 004°49'0 0.0
2016-Jul-25 13:31N 52°25' E 004°49'0 0.0
2016-Jul-25 12:31N 52°25' E 004°49'0 0.0
2016-Jul-25 11:31N 52°25' E 004°49'0 0.0
2016-Jul-25 10:31N 52°25' E 004°49'0 0.0
2016-Jul-25 09:31N 52°25' E 004°49'0 0.0
2016-Jul-25 08:29N 52°25' E 004°49'0 0.0
2016-Jul-25 07:29N 52°25' E 004°49'0 0.0
2016-Jul-25 06:31N 52°25' E 004°49'0 0.0
2016-Jul-25 05:29N 52°25' E 004°49'0 0.0
2016-Jul-25 04:31N 52°25' E 004°49'0 0.0
2016-Jul-25 03:31N 52°25' E 004°49'0 0.0
2016-Jul-25 02:32N 52°25' E 004°49'0 0.0
2016-Jul-25 01:32N 52°25' E 004°49'0 0.0
2016-Jul-25 00:31N 52°25' E 004°49'0 0.0
2016-Jul-24 23:31N 52°25' E 004°49'0 0.0
2016-Jul-24 22:32N 52°25' E 004°49'0 0.0
2016-Jul-24 21:31N 52°25' E 004°49'0 0.0
2016-Jul-24 20:28N 52°25' E 004°49'0 0.0
2016-Jul-24 19:28N 52°25' E 004°49'0 0.0
2016-Jul-24 18:29N 52°25' E 004°49'0 0.0
2016-Jul-24 17:31N 52°25' E 004°49'0 0.0
2016-Jul-24 16:31N 52°25' E 004°49'0 0.0
2016-Jul-24 15:28N 52°25' E 004°49'0 0.0
2016-Jul-24 14:32N 52°25' E 004°49'0 0.0
2016-Jul-24 13:28N 52°25' E 004°49'0 0.0
2016-Jul-24 12:32N 52°25' E 004°49'0 0.0
2016-Jul-24 11:26N 52°25' E 004°49'0 0.0
2016-Jul-24 10:31N 52°25' E 004°49'0 0.0
2016-Jul-24 09:32N 52°25' E 004°49'0 0.0
2016-Jul-24 08:32N 52°25' E 004°49'0 0.0
2016-Jul-24 07:32N 52°25' E 004°49'0 0.0
2016-Jul-24 06:34N 52°25' E 004°49'0 0.0
2016-Jul-24 05:34N 52°25' E 004°49'0 0.0
2016-Jul-24 04:34N 52°25' E 004°49'0 0.0
2016-Jul-24 03:34N 52°25' E 004°49'0 0.0
2016-Jul-24 02:33N 52°25' E 004°49'0 0.0
2016-Jul-24 01:34N 52°25' E 004°49'0 0.0
2016-Jul-24 00:34N 52°25' E 004°49'0 0.0
2016-Jul-23 23:34N 52°25' E 004°49'0 0.0
2016-Jul-23 22:34N 52°25' E 004°49'0 0.0
2016-Jul-23 21:34N 52°25' E 004°49'0 0.0
2016-Jul-23 20:34N 52°25' E 004°49'0 0.0
2016-Jul-23 19:34N 52°25' E 004°49'0 0.0
2016-Jul-23 18:34N 52°25' E 004°49'0 0.0
2016-Jul-23 17:34N 52°25' E 004°49'0 0.0
2016-Jul-23 16:34N 52°25' E 004°49'0 0.0
2016-Jul-23 15:34N 52°25' E 004°49'0 0.0
2016-Jul-23 14:34N 52°25' E 004°49'0 0.0
2016-Jul-23 13:34N 52°25' E 004°49'0 0.0
2016-Jul-23 12:34N 52°25' E 004°49'4 3.6
2016-Jul-23 11:34N 52°23' E 004°54'7 7.4
2016-Jul-23 10:33N 52°18' E 005°01'9 8.6
2016-Jul-23 09:33N 52°09' E 005°01'8 8.5
2016-Jul-23 08:33N 52°02' E 005°08'8 7.9
2016-Jul-23 07:33N 51°58' E 005°19'21 7.0
2016-Jul-23 04:33N 51°51' E 005°51'18 2.9
2016-Jul-22 22:32N 51°47' E 006°19'9 8.6
2016-Jul-22 21:26N 51°40' E 006°29'8 8.9
2016-Jul-22 20:32N 51°34' E 006°38'18 8.1
2016-Jul-22 18:20N 51°17' E 006°42'6 7.8
2016-Jul-22 17:34N 51°11' E 006°45'12 8.2
2016-Jul-22 16:07N 51°02' E 006°58'6 9.5
2016-Jul-22 15:29N 50°56' E 006°58'7 7.2
2016-Jul-22 14:33N 50°49' E 006°60'0 0.0
2016-Jul-21 15:32N 50°49' E 006°60'0 0.0
2016-Jul-21 12:23N 50°49' E 006°60'0 0.0
2016-Jul-21 11:29N 50°49' E 006°60'0 0.0
2016-Jul-21 10:33N 50°49' E 006°60'0 0.0
2016-Jul-21 09:32N 50°49' E 006°60'0 0.0
2016-Jul-21 08:27N 50°49' E 006°60'0 0.0
2016-Jul-21 07:32N 50°49' E 006°60'0 0.0
2016-Jul-21 06:09N 50°49' E 006°60'0 0.0
2016-Jul-21 05:26N 50°49' E 006°60'0 0.0
2016-Jul-21 04:32N 50°49' E 006°60'0 0.0
2016-Jul-21 03:30N 50°49' E 006°60'0 0.0
2016-Jul-21 02:15N 50°49' E 006°60'0 0.0
2016-Jul-21 01:31N 50°49' E 006°60'0 0.0
2016-Jul-21 00:33N 50°49' E 006°60'4 4.3
2016-Jul-20 23:33N 50°54' E 007°01'16 5.3
2016-Jul-20 20:31N 51°08' E 006°51'3 3.5
2016-Jul-20 19:33N 51°11' E 006°48'4 4.0
2016-Jul-20 18:33N 51°13' E 006°42'1 0.5
2016-Jul-20 17:23N 51°12' E 006°43'0 0.0
2016-Jul-20 16:33N 51°12' E 006°43'0 0.0
2016-Jul-20 15:33N 51°12' E 006°43'0 0.0
2016-Jul-20 14:33N 51°12' E 006°43'0 0.0
2016-Jul-20 13:33N 51°12' E 006°43'0 0.0
2016-Jul-20 12:33N 51°12' E 006°43'0 0.0
2016-Jul-20 11:33N 51°12' E 006°43'0 0.0
2016-Jul-20 10:33N 51°12' E 006°43'0 0.0
2016-Jul-20 09:34N 51°12' E 006°43'0 0.0
2016-Jul-20 08:33N 51°12' E 006°43'0 0.3
2016-Jul-20 07:33N 51°13' E 006°42'0 0.3
2016-Jul-20 06:34N 51°12' E 006°42'0 0.0
2016-Jul-20 05:33N 51°12' E 006°42'0 0.0
2016-Jul-20 04:33N 51°12' E 006°42'1 0.5
2016-Jul-20 03:33N 51°13' E 006°42'0 0.0
2016-Jul-20 02:33N 51°13' E 006°42'0 0.0
2016-Jul-20 01:33N 51°13' E 006°42'  
Track history (hours):
 
Tides and Currents Weather Stations Pressure Air Temp Water Temp Dewpoint Dewpoint Depression Visibility Wind Speed Wind Dir Waves Ship Positions

Rp Zug

Last reported at 2016-Jul-30 01:33 UTC. Time now 2016-Jul-30 02:00 UTC.
Position N 51°38' E 006°36'.

Length 110 m; draft 2.6 m.

Type: Tanker. MMSI: 269057351.

Date/timePositionNaut miles runAvg speedWind from/ knotsBaromVisibWave heightAir tempDewpointWater temp
2016-Jul-30 01:33N 51°38' E 006°36'16 4.9
2016-Jul-29 22:15N 51°49' E 006°16'11 3.8
2016-Jul-29 19:23N 51°52' E 005°59'4 4.7
2016-Jul-29 18:28N 51°51' E 005°52'6 6.3
2016-Jul-29 17:31N 51°53' E 005°43'12 5.9
2016-Jul-29 15:31N 51°51' E 005°25'5 5.1
2016-Jul-29 14:33N 51°49' E 005°17'8 6.7
2016-Jul-29 13:25N 51°50' E 005°04'4 4.7
2016-Jul-29 12:33N 51°50' E 004°58'9 8.7
2016-Jul-29 11:33N 51°49' E 004°44'9 9.2
2016-Jul-29 10:33N 51°54' E 004°31'8 7.9
2016-Jul-29 09:33N 51°53' E 004°18'0 0.2
2016-Jul-29 08:33N 51°53' E 004°18'0 0.0
2016-Jul-29 07:34N 51°53' E 004°18'0 0.1
2016-Jul-29 06:33N 51°53' E 004°19'0 0.2
2016-Jul-29 05:32N 51°53' E 004°18'0 0.0
2016-Jul-29 04:33N 51°53' E 004°18'0 0.0
2016-Jul-29 03:33N 51°53' E 004°18'0 0.0
2016-Jul-29 02:33N 51°53' E 004°18'0 0.0
2016-Jul-29 01:33N 51°53' E 004°18'0 0.0
2016-Jul-29 00:33N 51°53' E 004°18'0 0.0
2016-Jul-28 23:33N 51°53' E 004°18'0 0.0
2016-Jul-28 22:33N 51°53' E 004°18'0 0.0
2016-Jul-28 21:33N 51°53' E 004°18'0 0.0
2016-Jul-28 20:32N 51°53' E 004°18'0 0.0
2016-Jul-28 19:33N 51°53' E 004°18'0 0.0
2016-Jul-28 18:32N 51°53' E 004°18'0 0.0
2016-Jul-28 17:33N 51°53' E 004°18'1 0.6
2016-Jul-28 16:33N 51°53' E 004°19'0 0.0
2016-Jul-28 15:33N 51°53' E 004°19'0 0.0
2016-Jul-28 14:34N 51°53' E 004°19'0 0.0
2016-Jul-28 13:33N 51°53' E 004°19'0 0.0
2016-Jul-28 12:34N 51°53' E 004°19'0 0.0
2016-Jul-28 11:33N 51°53' E 004°19'0 0.0
2016-Jul-28 10:33N 51°53' E 004°19'0 0.0
2016-Jul-28 09:33N 51°53' E 004°19'1 0.6
2016-Jul-28 08:33N 51°53' E 004°18'0 0.0
2016-Jul-28 07:33N 51°53' E 004°18'0 0.0
2016-Jul-28 06:34N 51°53' E 004°18'0 0.1
2016-Jul-28 05:33N 51°53' E 004°18'8 8.1
2016-Jul-28 04:34N 51°54' E 004°32'1110.9
2016-Jul-28 03:33N 51°56' E 004°49'9 8.7
2016-Jul-28 02:34N 51°59' E 005°02'4 4.1
2016-Jul-28 01:33N 52°02' E 005°07'8 8.4
2016-Jul-28 00:33N 52°09' E 005°01'9 9.0
2016-Jul-27 23:34N 52°18' E 005°01'8 7.5
2016-Jul-27 22:33N 52°24' E 004°53'5 5.3
2016-Jul-27 21:34N 52°25' E 004°45'0 0.0
2016-Jul-27 20:33N 52°25' E 004°45'0 0.0
2016-Jul-27 19:33N 52°25' E 004°45'0 0.0
2016-Jul-27 18:33N 52°25' E 004°45'0 0.0
2016-Jul-27 17:33N 52°25' E 004°45'0 0.0
2016-Jul-27 16:33N 52°25' E 004°45'0 0.0
2016-Jul-27 15:33N 52°25' E 004°45'0 0.0
2016-Jul-27 14:33N 52°25' E 004°45'0 0.0
2016-Jul-27 13:29N 52°25' E 004°45'0 0.0
2016-Jul-27 12:32N 52°25' E 004°45'0 0.0
2016-Jul-27 11:29N 52°25' E 004°45'0 0.0
2016-Jul-27 10:14N 52°25' E 004°45'2 3.3
2016-Jul-27 09:34N 52°25' E 004°48'0 0.2
2016-Jul-27 08:25N 52°25' E 004°49'0 0.0
2016-Jul-27 07:32N 52°25' E 004°49'0 0.0
2016-Jul-27 06:32N 52°25' E 004°49'0 0.0
2016-Jul-27 05:31N 52°25' E 004°49'0 0.0
2016-Jul-27 04:31N 52°25' E 004°49'0 0.0
2016-Jul-27 03:32N 52°25' E 004°49'0 0.0
2016-Jul-27 02:32N 52°25' E 004°49'0 0.0
2016-Jul-27 01:31N 52°25' E 004°49'0 0.0
2016-Jul-27 00:28N 52°25' E 004°49'0 0.0
2016-Jul-26 23:28N 52°25' E 004°49'0 0.0
2016-Jul-26 22:31N 52°25' E 004°49'0 0.0
2016-Jul-26 21:31N 52°25' E 004°49'0 0.0
2016-Jul-26 20:31N 52°25' E 004°49'0 0.0
2016-Jul-26 19:32N 52°25' E 004°49'0 0.0
2016-Jul-26 18:32N 52°25' E 004°49'0 0.0
2016-Jul-26 17:31N 52°25' E 004°49'0 0.0
2016-Jul-26 16:31N 52°25' E 004°49'0 0.0
2016-Jul-26 15:26N 52°25' E 004°49'0 0.0
2016-Jul-26 14:31N 52°25' E 004°49'0 0.0
2016-Jul-26 13:28N 52°25' E 004°49'0 0.0
2016-Jul-26 12:28N 52°25' E 004°49'0 0.0
2016-Jul-26 11:31N 52°25' E 004°49'0 0.0
2016-Jul-26 10:25N 52°25' E 004°49'0 0.0
2016-Jul-26 09:31N 52°25' E 004°49'0 0.0
2016-Jul-26 08:31N 52°25' E 004°49'0 0.0
2016-Jul-26 07:28N 52°25' E 004°49'0 0.0
2016-Jul-26 06:31N 52°25' E 004°49'0 0.0
2016-Jul-26 05:32N 52°25' E 004°49'0 0.0
2016-Jul-26 04:31N 52°25' E 004°49'0 0.0
2016-Jul-26 03:32N 52°25' E 004°49'0 0.0
2016-Jul-26 02:28N 52°25' E 004°49'0 0.0
2016-Jul-26 01:31N 52°25' E 004°49'0 0.0
2016-Jul-26 00:31N 52°25' E 004°49'0 0.0
2016-Jul-25 23:31N 52°25' E 004°49'0 0.0
2016-Jul-25 22:31N 52°25' E 004°49'0 0.0
2016-Jul-25 21:31N 52°25' E 004°49'0 0.0
2016-Jul-25 20:31N 52°25' E 004°49'0 0.0
2016-Jul-25 19:32N 52°25' E 004°49'0 0.0
2016-Jul-25 18:32N 52°25' E 004°49'0 0.0
2016-Jul-25 17:31N 52°25' E 004°49'0 0.0
2016-Jul-25 16:32N 52°25' E 004°49'0 0.0
2016-Jul-25 15:31N 52°25' E 004°49'0 0.0
2016-Jul-25 14:31N 52°25' E 004°49'0 0.0
2016-Jul-25 13:31N 52°25' E 004°49'0 0.0
2016-Jul-25 12:31N 52°25' E 004°49'0 0.0
2016-Jul-25 11:31N 52°25' E 004°49'0 0.0
2016-Jul-25 10:31N 52°25' E 004°49'0 0.0
2016-Jul-25 09:31N 52°25' E 004°49'0 0.0
2016-Jul-25 08:29N 52°25' E 004°49'0 0.0
2016-Jul-25 07:29N 52°25' E 004°49'0 0.0
2016-Jul-25 06:31N 52°25' E 004°49'0 0.0
2016-Jul-25 05:29N 52°25' E 004°49'0 0.0
2016-Jul-25 04:31N 52°25' E 004°49'0 0.0
2016-Jul-25 03:31N 52°25' E 004°49'0 0.0
2016-Jul-25 02:32N 52°25' E 004°49'0 0.0
2016-Jul-25 01:32N 52°25' E 004°49'0 0.0
2016-Jul-25 00:31N 52°25' E 004°49'0 0.0
2016-Jul-24 23:31N 52°25' E 004°49'0 0.0
2016-Jul-24 22:32N 52°25' E 004°49'0 0.0
2016-Jul-24 21:31N 52°25' E 004°49'0 0.0
2016-Jul-24 20:28N 52°25' E 004°49'0 0.0
2016-Jul-24 19:28N 52°25' E 004°49'0 0.0
2016-Jul-24 18:29N 52°25' E 004°49'0 0.0
2016-Jul-24 17:31N 52°25' E 004°49'0 0.0
2016-Jul-24 16:31N 52°25' E 004°49'0 0.0
2016-Jul-24 15:28N 52°25' E 004°49'0 0.0
2016-Jul-24 14:32N 52°25' E 004°49'0 0.0
2016-Jul-24 13:28N 52°25' E 004°49'0 0.0
2016-Jul-24 12:32N 52°25' E 004°49'0 0.0
2016-Jul-24 11:26N 52°25' E 004°49'0 0.0
2016-Jul-24 10:31N 52°25' E 004°49'0 0.0
2016-Jul-24 09:32N 52°25' E 004°49'0 0.0
2016-Jul-24 08:32N 52°25' E 004°49'0 0.0
2016-Jul-24 07:32N 52°25' E 004°49'0 0.0
2016-Jul-24 06:34N 52°25' E 004°49'0 0.0
2016-Jul-24 05:34N 52°25' E 004°49'0 0.0
2016-Jul-24 04:34N 52°25' E 004°49'0 0.0
2016-Jul-24 03:34N 52°25' E 004°49'0 0.0
2016-Jul-24 02:33N 52°25' E 004°49'0 0.0
2016-Jul-24 01:34N 52°25' E 004°49'0 0.0
2016-Jul-24 00:34N 52°25' E 004°49'0 0.0
2016-Jul-23 23:34N 52°25' E 004°49'0 0.0
2016-Jul-23 22:34N 52°25' E 004°49'0 0.0
2016-Jul-23 21:34N 52°25' E 004°49'0 0.0
2016-Jul-23 20:34N 52°25' E 004°49'0 0.0
2016-Jul-23 19:34N 52°25' E 004°49'0 0.0
2016-Jul-23 18:34N 52°25' E 004°49'0 0.0
2016-Jul-23 17:34N 52°25' E 004°49'0 0.0
2016-Jul-23 16:34N 52°25' E 004°49'0 0.0
2016-Jul-23 15:34N 52°25' E 004°49'0 0.0
2016-Jul-23 14:34N 52°25' E 004°49'0 0.0
2016-Jul-23 13:34N 52°25' E 004°49'0 0.0
2016-Jul-23 12:34N 52°25' E 004°49'4 3.6
2016-Jul-23 11:34N 52°23' E 004°54'7 7.4
2016-Jul-23 10:33N 52°18' E 005°01'9 8.6
2016-Jul-23 09:33N 52°09' E 005°01'8 8.5
2016-Jul-23 08:33N 52°02' E 005°08'8 7.9
2016-Jul-23 07:33N 51°58' E 005°19'21 7.0
2016-Jul-23 04:33N 51°51' E 005°51'18 2.9
2016-Jul-22 22:32N 51°47' E 006°19'9 8.6
2016-Jul-22 21:26N 51°40' E 006°29'8 8.9
2016-Jul-22 20:32N 51°34' E 006°38'18 8.1
2016-Jul-22 18:20N 51°17' E 006°42'6 7.8
2016-Jul-22 17:34N 51°11' E 006°45'12 8.2
2016-Jul-22 16:07N 51°02' E 006°58'6 9.5
2016-Jul-22 15:29N 50°56' E 006°58'7 7.2
2016-Jul-22 14:33N 50°49' E 006°60'0 0.0
2016-Jul-21 15:32N 50°49' E 006°60'0 0.0
2016-Jul-21 12:23N 50°49' E 006°60'0 0.0
2016-Jul-21 11:29N 50°49' E 006°60'0 0.0
2016-Jul-21 10:33N 50°49' E 006°60'0 0.0
2016-Jul-21 09:32N 50°49' E 006°60'0 0.0
2016-Jul-21 08:27N 50°49' E 006°60'0 0.0
2016-Jul-21 07:32N 50°49' E 006°60'0 0.0
2016-Jul-21 06:09N 50°49' E 006°60'0 0.0
2016-Jul-21 05:26N 50°49' E 006°60'0 0.0
2016-Jul-21 04:32N 50°49' E 006°60'0 0.0
2016-Jul-21 03:30N 50°49' E 006°60'0 0.0
2016-Jul-21 02:15N 50°49' E 006°60'0 0.0
2016-Jul-21 01:31N 50°49' E 006°60'0 0.0
2016-Jul-21 00:33N 50°49' E 006°60'4 4.3
2016-Jul-20 23:33N 50°54' E 007°01'16 5.3
2016-Jul-20 20:31N 51°08' E 006°51'3 3.5
2016-Jul-20 19:33N 51°11' E 006°48'4 4.0
2016-Jul-20 18:33N 51°13' E 006°42'1 0.5
2016-Jul-20 17:23N 51°12' E 006°43'0 0.0
2016-Jul-20 16:33N 51°12' E 006°43'0 0.0
2016-Jul-20 15:33N 51°12' E 006°43'0 0.0
2016-Jul-20 14:33N 51°12' E 006°43'0 0.0
2016-Jul-20 13:33N 51°12' E 006°43'0 0.0
2016-Jul-20 12:33N 51°12' E 006°43'0 0.0
2016-Jul-20 11:33N 51°12' E 006°43'0 0.0
2016-Jul-20 10:33N 51°12' E 006°43'0 0.0
2016-Jul-20 09:34N 51°12' E 006°43'0 0.0
2016-Jul-20 08:33N 51°12' E 006°43'0 0.3
2016-Jul-20 07:33N 51°13' E 006°42'0 0.3
2016-Jul-20 06:34N 51°12' E 006°42'0 0.0
2016-Jul-20 05:33N 51°12' E 006°42'0 0.0
2016-Jul-20 04:33N 51°12' E 006°42'1 0.5
2016-Jul-20 03:33N 51°13' E 006°42'0 0.0
2016-Jul-20 02:33N 51°13' E 006°42'0 0.0
2016-Jul-20 01:33N 51°13' E 006°42'  

Dump ship's entire track history